Time;durP1;ratioP1;P1;durP2;ratioP2;P2;SDS_P1;SDS_P2;PMS_P1;PMS_P2;Temp;Humidity;BMP_temperature;BMP_pressure;BME280_temperature;BME280_humidity;BME280_pressure;Samples;Min_cycle;Max_cycle;Signal;HPM_P1;HPM_P2
2023/10/26 00:01:13;;;;;;;;;;;;;;;27.11;41.89;92781.06;5050462;28;7093;-61
2023/10/26 00:03:48;;;;;;;;;;;;;;;27.06;41.85;92784.75;5031830;28;7014;-61
2023/10/26 00:06:14;;;;;;;;;;;;;;;27.08;42.15;92787.69;5053595;28;6961;-61
2023/10/26 00:08:42;;;;;;;;;;;;;;;27.08;42.17;92784.94;5058606;28;7282;-61
2023/10/26 00:11:11;;;;;;;;;;;;;;;27.04;42.13;92792.88;5052202;28;7242;-61
2023/10/26 00:13:39;;;;;;;;;;;;;;;27.02;42.17;92778.91;5037992;28;7631;-61
2023/10/26 00:16:06;;;;;;;;;;;;;;;27.04;42.14;92783.84;5037797;28;7764;-61
2023/10/26 00:18:36;;;;;;;;;;;;;;;27.03;41.99;92788.66;5048718;28;7238;-61
2023/10/26 00:21:04;;;;;;;;;;;;;;;27.04;42.33;92787.34;5043605;28;7011;-61
2023/10/26 00:23:32;;;;;;;;;;;;;;;27.04;42.25;92775.56;5057410;28;7843;-61
2023/10/26 00:26:05;;;;;;;;;;;;;;;27.04;42.25;92772.81;5044973;28;8796;-61
2023/10/26 00:28:39;;;;;;;;;;;;;;;27.00;41.89;92778.00;5033848;28;7237;-61
2023/10/26 00:31:05;;;;;;;;;;;;;;;26.96;42.02;92764.59;5057296;28;10051;-61
2023/10/26 00:33:31;;;;;;;;;;;;;;;26.98;42.59;92766.78;5050316;28;9648;-61
2023/10/26 00:35:58;;;;;;;;;;;;;;;26.96;42.30;92764.59;5041853;28;6994;-61
2023/10/26 00:38:24;;;;;;;;;;;;;;;26.96;42.42;92763.84;5031500;28;7479;-61
2023/10/26 00:40:50;;;;;;;;;;;;;;;26.97;42.29;92759.81;5037288;28;7239;-61
2023/10/26 00:43:26;;;;;;;;;;;;;;;26.96;42.37;92752.81;5050916;28;9045;-61
2023/10/26 00:46:10;;;;;;;;;;;;;;;26.95;42.38;92752.06;5034925;28;9138;-55
2023/10/26 00:48:43;;;;;;;;;;;;;;;26.94;42.38;92752.63;5047108;28;7453;-55
2023/10/26 00:51:14;;;;;;;;;;;;;;;26.94;42.44;92758.16;5027118;28;7406;-55
2023/10/26 00:53:43;;;;;;;;;;;;;;;26.94;42.32;92760.91;5047397;28;6989;-56
2023/10/26 00:56:13;;;;;;;;;;;;;;;26.91;41.98;92762.75;5024168;28;7494;-55
2023/10/26 00:58:50;;;;;;;;;;;;;;;26.89;42.69;92768.09;5041892;28;7332;-55
2023/10/26 01:01:19;;;;;;;;;;;;;;;26.92;42.33;92764.25;5027431;28;7000;-55
2023/10/26 01:04:15;;;;;;;;;;;;;;;26.88;42.21;92758.38;5048007;28;7285;-55
2023/10/26 01:06:51;;;;;;;;;;;;;;;26.87;42.13;92770.69;4955963;28;8705;-56
2023/10/26 01:09:47;;;;;;;;;;;;;;;26.86;42.48;92774.75;4964365;28;9017;-56
2023/10/26 01:12:25;;;;;;;;;;;;;;;26.87;42.34;92760.38;4912641;29;9121;-56
2023/10/26 01:15:06;;;;;;;;;;;;;;;26.87;42.26;92765.16;4920165;29;6990;-56
2023/10/26 01:17:43;;;;;;;;;;;;;;;26.83;42.21;92753.78;4914481;29;7398;-55
2023/10/26 01:20:22;;;;;;;;;;;;;;;26.84;42.53;92752.47;4915773;29;7195;-55
2023/10/26 01:23:14;;;;;;;;;;;;;;;26.83;42.53;92756.53;4902412;29;7250;-55
2023/10/26 01:25:43;;;;;;;;;;;;;;;26.78;42.40;92749.19;4906385;29;7509;-55
2023/10/26 01:28:23;;;;;;;;;;;;;;;26.79;42.78;92745.91;4899034;29;7091;-56
2023/10/26 01:30:49;;;;;;;;;;;;;;;26.76;42.50;92744.25;4898971;29;8979;-55
2023/10/26 01:33:18;;;;;;;;;;;;;;;26.77;42.64;92736.72;4914909;29;7237;-55
2023/10/26 01:35:55;;;;;;;;;;;;;;;26.80;42.80;92738.34;4917923;29;7213;-55
2023/10/26 01:38:55;;;;;;;;;;;;;;;26.82;42.35;92730.97;4899309;29;8996;-55
2023/10/26 01:41:21;;;;;;;;;;;;;;;26.79;42.53;92721.06;4899880;29;7242;-55
2023/10/26 01:43:49;;;;;;;;;;;;;;;26.78;42.53;92718.84;4926423;29;8845;-56
2023/10/26 01:46:25;;;;;;;;;;;;;;;26.78;42.18;92714.09;4918368;29;7341;-55
2023/10/26 01:48:56;;;;;;;;;;;;;;;26.77;42.64;92714.66;4962988;28;9379;-55
2023/10/26 01:51:24;;;;;;;;;;;;;;;26.77;42.64;92715.38;4976654;28;9194;-56
2023/10/26 01:54:09;;;;;;;;;;;;;;;26.77;42.46;92711.88;4990326;28;7808;-62
2023/10/26 01:56:46;;;;;;;;;;;;;;;26.75;42.38;92712.44;4995992;28;9078;-63
2023/10/26 01:59:21;;;;;;;;;;;;;;;26.75;42.65;92717.94;4975274;28;8439;-62
2023/10/26 02:01:56;;;;;;;;;;;;;;;26.72;42.46;92707.28;4994038;28;7348;-63
2023/10/26 02:04:32;;;;;;;;;;;;;;;26.73;42.67;92709.50;4975610;28;8855;-62
2023/10/26 02:07:11;;;;;;;;;;;;;;;26.73;42.50;92706.75;4991244;28;8754;-62
2023/10/26 02:10:13;;;;;;;;;;;;;;;26.73;42.73;92700.50;4978302;28;7876;-63
2023/10/26 02:12:39;;;;;;;;;;;;;;;26.71;42.74;92701.03;4932086;29;7373;-62
2023/10/26 02:15:21;;;;;;;;;;;;;;;26.71;42.49;92694.75;4917528;29;7178;-62
2023/10/26 02:17:58;;;;;;;;;;;;;;;26.73;42.88;92686.72;4960765;28;8732;-63
2023/10/26 02:20:37;;;;;;;;;;;;;;;26.70;42.63;92687.81;4995583;28;6995;-63
2023/10/26 02:23:14;;;;;;;;;;;;;;;26.68;42.87;92679.34;4995967;28;7286;-63
2023/10/26 02:25:48;;;;;;;;;;;;;;;26.69;42.36;92676.03;4970430;28;7419;-62
2023/10/26 02:28:30;;;;;;;;;;;;;;;26.70;42.81;92676.78;4967763;28;7319;-62
2023/10/26 02:30:58;;;;;;;;;;;;;;;26.69;42.82;92676.03;4969518;28;8788;-62
2023/10/26 02:34:09;;;;;;;;;;;;;;;26.68;42.88;92673.84;4967904;28;7590;-63
2023/10/26 02:36:35;;;;;;;;;;;;;;;26.66;42.48;92673.66;4984162;28;7197;-63
2023/10/26 02:39:02;;;;;;;;;;;;;;;26.66;42.60;92666.13;4991642;28;6974;-63
2023/10/26 02:42:00;;;;;;;;;;;;;;;26.65;42.71;92666.66;4989581;28;7056;-63
2023/10/26 02:44:31;;;;;;;;;;;;;;;26.65;43.11;92659.13;4941890;28;7663;-63
2023/10/26 02:46:57;;;;;;;;;;;;;;;26.66;42.58;92666.13;4947811;28;7802;-62
2023/10/26 02:49:58;;;;;;;;;;;;;;;26.67;42.54;92664.09;4929836;28;7154;-63
2023/10/26 02:52:44;;;;;;;;;;;;;;;26.65;42.72;92655.66;4933399;28;7125;-62
2023/10/26 02:55:11;;;;;;;;;;;;;;;26.66;42.36;92655.09;4931035;28;7406;-62
2023/10/26 02:58:09;;;;;;;;;;;;;;;26.65;42.74;92655.66;4926874;29;7208;-63
2023/10/26 03:00:35;;;;;;;;;;;;;;;26.65;42.71;92652.88;4929285;28;9603;-63
2023/10/26 03:03:14;;;;;;;;;;;;;;;26.64;42.43;92652.16;4920849;28;7354;-63
2023/10/26 03:05:49;;;;;;;;;;;;;;;26.63;42.70;92660.97;4936342;28;7056;-55
2023/10/26 03:08:31;;;;;;;;;;;;;;;26.62;42.91;92648.50;4933980;28;9657;-56
2023/10/26 03:11:17;;;;;;;;;;;;;;;26.63;42.65;92649.94;4928037;29;8862;-55
2023/10/26 03:13:56;;;;;;;;;;;;;;;26.60;42.96;92634.53;4936296;28;9458;-55
2023/10/26 03:16:47;;;;;;;;;;;;;;;26.62;42.94;92643.69;4918143;29;9072;-55
2023/10/26 03:19:17;;;;;;;;;;;;;;;26.61;42.48;92633.25;4927827;29;7264;-55
2023/10/26 03:21:46;;;;;;;;;;;;;;;26.60;42.97;92640.06;4946203;28;7414;-55
2023/10/26 03:24:12;;;;;;;;;;;;;;;26.58;42.94;92642.63;4975763;28;7117;-54
2023/10/26 03:26:41;;;;;;;;;;;;;;;26.58;42.30;92642.63;5009088;28;7230;-55
2023/10/26 03:29:21;;;;;;;;;;;;;;;26.59;42.96;92633.06;5048381;28;6993;-55
2023/10/26 03:31:47;;;;;;;;;;;;;;;26.57;42.70;92643.91;5016564;28;7248;-55
2023/10/26 03:34:13;;;;;;;;;;;;;;;26.57;42.98;92619.09;5036840;28;7239;-55
2023/10/26 03:36:49;;;;;;;;;;;;;;;26.57;43.00;92641.91;5041580;28;6926;-55
2023/10/26 03:39:23;;;;;;;;;;;;;;;26.58;42.73;92620.56;5038458;28;7186;-55
2023/10/26 03:41:58;;;;;;;;;;;;;;;26.55;42.83;92630.72;5056261;28;7479;-55
2023/10/26 03:44:30;;;;;;;;;;;;;;;26.54;43.17;92625.72;5036051;28;7594;-55
2023/10/26 03:46:58;;;;;;;;;;;;;;;26.58;42.87;92628.84;5054466;28;7302;-55
2023/10/26 03:49:27;;;;;;;;;;;;;;;26.56;43.34;92625.91;5026167;28;7009;-55
2023/10/26 03:52:03;;;;;;;;;;;;;;;26.56;42.84;92628.66;5030094;28;7408;-55
2023/10/26 03:54:42;;;;;;;;;;;;;;;26.58;42.79;92637.09;5047269;28;6975;-55
2023/10/26 03:57:09;;;;;;;;;;;;;;;26.56;43.07;92634.16;5040112;28;8236;-55
2023/10/26 03:59:35;;;;;;;;;;;;;;;26.52;43.28;92640.09;5041837;28;7084;-55
2023/10/26 04:02:03;;;;;;;;;;;;;;;26.52;42.99;92631.06;5037510;28;8897;-55
2023/10/26 04:04:30;;;;;;;;;;;;;;;26.53;42.73;92629.78;5052608;28;7273;-55
2023/10/26 04:06:56;;;;;;;;;;;;;;;26.53;42.73;92636.03;5055159;28;7253;-55
2023/10/26 04:09:22;;;;;;;;;;;;;;;26.52;43.35;92626.28;5039108;28;7000;-56
2023/10/26 04:11:48;;;;;;;;;;;;;;;26.54;42.86;92628.50;5048649;28;7149;-56
2023/10/26 04:14:17;;;;;;;;;;;;;;;26.53;42.75;92629.78;5033825;28;7248;-66
2023/10/26 04:16:52;;;;;;;;;;;;;;;26.54;42.61;92640.25;5039845;28;9050;-66
2023/10/26 04:19:26;;;;;;;;;;;;;;;26.53;43.24;92632.56;5032869;28;9099;-66
2023/10/26 04:21:52;;;;;;;;;;;;;;;26.52;43.50;92628.31;5032578;28;6992;-66
2023/10/26 04:24:18;;;;;;;;;;;;;;;26.53;42.93;92624.28;5024119;28;8175;-66
2023/10/26 04:26:44;;;;;;;;;;;;;;;26.51;42.33;92621.34;5032349;28;7248;-66
2023/10/26 04:29:11;;;;;;;;;;;;;;;26.54;42.90;92628.50;5043732;28;7119;-66
2023/10/26 04:31:37;;;;;;;;;;;;;;;26.51;42.76;92615.84;5041124;28;7021;-65
2023/10/26 04:34:03;;;;;;;;;;;;;;;26.51;42.83;92607.56;5048021;28;7255;-65
2023/10/26 04:36:30;;;;;;;;;;;;;;;26.51;42.67;92604.81;5038330;28;7075;-65
2023/10/26 04:38:59;;;;;;;;;;;;;;;26.48;42.83;92597.66;5055035;28;7253;-65
2023/10/26 04:41:26;;;;;;;;;;;;;;;26.48;42.89;92612.16;5052304;28;7216;-65
2023/10/26 04:43:59;;;;;;;;;;;;;;;26.46;42.99;92609.25;5039101;28;7072;-65
2023/10/26 04:46:27;;;;;;;;;;;;;;;26.51;43.03;92607.56;5028943;28;7397;-66
2023/10/26 04:49:09;;;;;;;;;;;;;;;26.52;42.91;92601.47;5039123;28;8638;-64
2023/10/26 04:51:37;;;;;;;;;;;;;;;26.52;43.20;92600.75;5055189;28;9327;-64
2023/10/26 04:54:04;;;;;;;;;;;;;;;26.47;43.37;92598.94;5047813;28;9104;-65
2023/10/26 04:56:31;;;;;;;;;;;;;;;26.51;43.03;92580.69;5044112;28;7068;-65
2023/10/26 04:59:26;;;;;;;;;;;;;;;26.50;43.37;92593.03;5051920;28;8183;-64
2023/10/26 05:01:52;;;;;;;;;;;;;;;26.49;43.19;92571.56;4999671;28;7406;-65
2023/10/26 05:04:18;;;;;;;;;;;;;;;26.48;42.93;92584.59;5000911;28;7073;-65
2023/10/26 05:07:04;;;;;;;;;;;;;;;26.47;42.98;92568.63;4970838;28;7175;-65
2023/10/26 05:09:40;;;;;;;;;;;;;;;26.46;42.77;92573.41;4991199;28;8790;-64
2023/10/26 05:12:06;;;;;;;;;;;;;;;26.45;43.72;92579.44;4995511;28;7005;-64
2023/10/26 05:14:43;;;;;;;;;;;;;;;26.46;43.54;92572.66;4969756;28;8724;-64
2023/10/26 05:17:11;;;;;;;;;;;;;;;26.46;43.58;92569.91;4978149;28;7187;-64
2023/10/26 05:19:38;;;;;;;;;;;;;;;26.48;44.02;92568.06;4992643;28;7029;-65
2023/10/26 05:22:03;;;;;;;;;;;;;;;26.50;43.77;92564.72;4982971;28;7010;-65
2023/10/26 05:24:29;;;;;;;;;;;;;;;26.48;43.73;92556.28;4975996;28;9067;-53
2023/10/26 05:26:56;;;;;;;;;;;;;;;26.47;43.48;92563.81;4989341;28;7319;-55
2023/10/26 05:29:22;;;;;;;;;;;;;;;26.42;43.66;92562.03;4990096;28;6991;-55
2023/10/26 05:31:48;;;;;;;;;;;;;;;26.43;43.47;92565.50;5006415;28;7238;-55
2023/10/26 05:34:14;;;;;;;;;;;;;;;26.43;43.26;92563.47;4971597;28;6977;-55
2023/10/26 05:36:43;;;;;;;;;;;;;;;26.44;43.76;92575.25;4994344;28;8791;-55
2023/10/26 05:39:11;;;;;;;;;;;;;;;26.43;43.43;92576.53;5037104;28;7054;-55
2023/10/26 05:41:37;;;;;;;;;;;;;;;26.40;43.89;92569.41;5034461;28;7196;-55
2023/10/26 05:44:13;;;;;;;;;;;;;;;26.41;43.66;92576.34;5030205;28;7072;-55
2023/10/26 05:47:18;;;;;;;;;;;;;;;26.38;43.35;92575.44;5058155;28;7249;-55
2023/10/26 05:50:04;;;;;;;;;;;;;;;26.38;43.41;92578.19;4975943;28;7407;-55
2023/10/26 05:52:32;;;;;;;;;;;;;;;26.37;43.21;92584.28;4954665;28;7325;-55
2023/10/26 05:55:07;;;;;;;;;;;;;;;26.37;43.40;92584.28;4970438;28;7238;-55
2023/10/26 05:57:44;;;;;;;;;;;;;;;26.36;43.94;92585.59;4970253;28;9264;-55
2023/10/26 06:00:17;;;;;;;;;;;;;;;26.32;43.52;92576.97;4978063;28;7273;-56
2023/10/26 06:02:59;;;;;;;;;;;;;;;26.35;43.46;92575.84;4969864;28;7007;-55
2023/10/26 06:05:40;;;;;;;;;;;;;;;26.33;43.33;92584.69;4971489;28;9687;-55
2023/10/26 06:08:15;;;;;;;;;;;;;;;26.34;43.69;92585.41;4956946;28;7222;-55
2023/10/26 06:11:15;;;;;;;;;;;;;;;26.40;43.67;92572.16;4952917;28;9148;-56
2023/10/26 06:13:43;;;;;;;;;;;;;;;26.40;43.66;92566.63;4906348;29;7216;-54
2023/10/26 06:16:15;;;;;;;;;;;;;;;26.40;44.26;92559.09;4912932;29;6984;-55
2023/10/26 06:18:57;;;;;;;;;;;;;;;26.44;43.70;92561.47;4913965;29;7068;-54
2023/10/26 06:21:33;;;;;;;;;;;;;;;26.48;43.95;92561.81;4940461;28;7251;-56
2023/10/26 06:24:02;;;;;;;;;;;;;;;26.52;43.79;92562.16;4964638;28;7476;-55
2023/10/26 06:26:29;;;;;;;;;;;;;;;26.53;43.74;92556.09;4962813;28;7907;-55
2023/10/26 06:29:17;;;;;;;;;;;;;;;26.57;44.37;92556.44;4972837;28;7443;-55
2023/10/26 06:31:44;;;;;;;;;;;;;;;26.60;43.80;92560.81;4970867;28;7325;-55
2023/10/26 06:34:35;;;;;;;;;;;;;;;26.61;43.75;92558.78;4964711;28;6992;-61
2023/10/26 06:37:08;;;;;;;;;;;;;;;26.63;43.66;92556.19;4970708;28;7239;-61
2023/10/26 06:39:51;;;;;;;;;;;;;;;26.62;44.09;92544.44;4955514;28;7502;-61
2023/10/26 06:42:34;;;;;;;;;;;;;;;26.64;44.12;92563.91;4971579;28;8772;-61
2023/10/26 06:45:04;;;;;;;;;;;;;;;26.67;44.08;92551.03;4970950;28;8757;-61
2023/10/26 06:47:40;;;;;;;;;;;;;;;26.66;44.44;92528.25;4978316;28;8754;-61
2023/10/26 06:50:06;;;;;;;;;;;;;;;26.68;44.06;92530.44;5032656;28;7412;-61
2023/10/26 06:52:35;;;;;;;;;;;;;;;26.69;44.12;92521.59;5030348;28;7240;-61
2023/10/26 06:55:05;;;;;;;;;;;;;;;26.69;43.31;92527.09;5036217;28;7234;-61
2023/10/26 06:57:35;;;;;;;;;;;;;;;26.70;43.98;92533.34;5034780;28;6999;-61
2023/10/26 07:00:02;;;;;;;;;;;;;;;26.71;44.10;92524.50;5052919;28;7006;-61
2023/10/26 07:02:33;;;;;;;;;;;;;;;26.70;44.11;92533.34;5029179;28;7118;-61
2023/10/26 07:04:59;;;;;;;;;;;;;;;26.70;43.66;92531.34;5052828;28;7243;-61
2023/10/26 07:07:30;;;;;;;;;;;;;;;26.71;44.03;92545.84;5055954;28;7054;-61
2023/10/26 07:10:00;;;;;;;;;;;;;;;26.70;44.04;92545.13;5044728;28;8721;-61
2023/10/26 07:12:40;;;;;;;;;;;;;;;26.75;43.77;92562.78;5052687;28;8839;-61
2023/10/26 07:15:27;;;;;;;;;;;;;;;26.77;43.78;92573.97;5030510;28;9463;-61
2023/10/26 07:18:07;;;;;;;;;;;;;;;26.74;43.72;92561.31;5030179;28;7020;-61
2023/10/26 07:20:39;;;;;;;;;;;;;;;26.75;43.47;92546.94;5054345;28;6992;-61
2023/10/26 07:23:07;;;;;;;;;;;;;;;26.75;43.57;92554.50;5048559;28;8227;-61
2023/10/26 07:25:55;;;;;;;;;;;;;;;26.77;43.77;92565.72;5057675;28;9231;-61
2023/10/26 07:28:28;;;;;;;;;;;;;;;26.76;43.60;92572.50;5041522;28;9261;-61
2023/10/26 07:30:54;;;;;;;;;;;;;;;26.78;43.48;92573.41;5039230;28;7008;-61
2023/10/26 07:33:26;;;;;;;;;;;;;;;26.80;43.65;92581.13;5057944;28;9035;-62
2023/10/26 07:36:11;;;;;;;;;;;;;;;26.82;42.80;92584.03;5039678;28;7223;-61
2023/10/26 07:38:42;;;;;;;;;;;;;;;26.82;43.40;92578.53;5027034;28;7250;-61
2023/10/26 07:41:09;;;;;;;;;;;;;;;26.85;43.36;92571.91;5042519;28;7262;-61
2023/10/26 07:43:39;;;;;;;;;;;;;;;26.89;43.61;92578.47;5038732;28;7781;-64
2023/10/26 07:46:34;;;;;;;;;;;;;;;26.93;43.54;92583.59;5052080;28;7119;-65
2023/10/26 07:49:20;;;;;;;;;;;;;;;26.95;43.35;92594.09;5030194;28;9101;-65
2023/10/26 07:51:46;;;;;;;;;;;;;;;26.97;43.16;92603.25;5048238;28;7178;-66
2023/10/26 07:54:13;;;;;;;;;;;;;;;26.99;42.88;92597.91;5037714;28;7202;-65
2023/10/26 07:56:43;;;;;;;;;;;;;;;26.99;42.98;92592.38;5038377;28;8880;-65
2023/10/26 07:59:36;;;;;;;;;;;;;;;27.01;43.17;92594.59;5054817;28;7308;-65
2023/10/26 08:02:14;;;;;;;;;;;;;;;27.02;42.92;92585.00;5058826;28;7252;-65
2023/10/26 08:04:43;;;;;;;;;;;;;;;27.04;42.97;92593.44;5021238;28;9692;-65
2023/10/26 08:07:19;;;;;;;;;;;;;;;27.06;42.97;92590.84;5016198;28;9033;-65
2023/10/26 08:09:48;;;;;;;;;;;;;;;27.05;43.70;92584.63;5036654;28;6998;-65
2023/10/26 08:12:16;;;;;;;;;;;;;;;27.08;42.99;92580.72;5041909;28;8936;-65
2023/10/26 08:14:42;;;;;;;;;;;;;;;27.10;42.73;92564.34;5036384;28;9198;-65
2023/10/26 08:17:16;;;;;;;;;;;;;;;27.09;43.05;92554.59;5041742;28;8761;-65
2023/10/26 08:19:52;;;;;;;;;;;;;;;27.09;42.96;92551.84;5056613;28;7505;-65
2023/10/26 08:22:20;;;;;;;;;;;;;;;27.12;43.20;92561.75;5022366;28;7045;-65
2023/10/26 08:25:06;;;;;;;;;;;;;;;27.11;43.31;92554.78;5054140;28;7266;-65
2023/10/26 08:27:39;;;;;;;;;;;;;;;27.12;42.78;92569.31;5048767;28;7234;-65
2023/10/26 08:30:21;;;;;;;;;;;;;;;27.11;42.79;92579.59;5040919;28;7970;-65
2023/10/26 08:33:15;;;;;;;;;;;;;;;27.10;42.76;92582.94;5047137;28;7180;-66
2023/10/26 08:35:52;;;;;;;;;;;;;;;27.10;42.88;92605.03;5018689;28;9064;-65
2023/10/26 08:38:20;;;;;;;;;;;;;;;27.08;42.79;92613.84;5004732;28;8679;-65
2023/10/26 08:40:53;;;;;;;;;;;;;;;27.09;42.81;92596.00;5014882;28;8710;-65
2023/10/26 08:43:21;;;;;;;;;;;;;;;27.11;42.86;92593.41;5019157;28;7879;-65
2023/10/26 08:46:00;;;;;;;;;;;;;;;27.12;42.82;92605.19;5012535;28;8852;-65
2023/10/26 08:48:30;;;;;;;;;;;;;;;27.11;42.86;92604.44;5013498;28;7853;-65
2023/10/26 08:50:56;;;;;;;;;;;;;;;27.11;43.00;92606.47;5004241;28;7228;-65
2023/10/26 08:53:23;;;;;;;;;;;;;;;27.13;42.83;92587.31;5013787;28;7276;-65
2023/10/26 08:55:56;;;;;;;;;;;;;;;27.10;42.87;92607.78;5017249;28;6975;-61
2023/10/26 08:58:32;;;;;;;;;;;;;;;27.11;42.87;92604.44;5020426;28;9102;-61
2023/10/26 09:01:02;;;;;;;;;;;;;;;27.15;42.89;92610.31;5006023;28;7529;-61
2023/10/26 09:03:29;;;;;;;;;;;;;;;27.13;43.30;92606.63;4986910;28;7266;-61
2023/10/26 09:05:56;;;;;;;;;;;;;;;27.16;42.71;92609.00;4999089;28;6987;-61
2023/10/26 09:08:29;;;;;;;;;;;;;;;27.15;43.03;92598.53;5017453;28;7309;-61
2023/10/26 09:10:56;;;;;;;;;;;;;;;27.15;42.63;92607.53;5004728;28;7279;-61
2023/10/26 09:13:28;;;;;;;;;;;;;;;27.13;42.93;92612.91;5039023;28;8730;-61
2023/10/26 09:16:03;;;;;;;;;;;;;;;27.15;42.79;92624.09;5035961;28;7577;-61
2023/10/26 09:18:31;;;;;;;;;;;;;;;27.15;42.86;92615.81;5044098;28;7069;-61
2023/10/26 09:21:04;;;;;;;;;;;;;;;27.18;42.56;92622.97;5055552;28;7249;-62
2023/10/26 09:23:45;;;;;;;;;;;;;;;27.19;42.40;92629.94;5054583;28;7132;-61
2023/10/26 09:26:11;;;;;;;;;;;;;;;27.19;42.91;92618.19;5037340;28;8932;-61
2023/10/26 09:28:53;;;;;;;;;;;;;;;27.17;42.84;92621.50;5046186;28;7640;-61
2023/10/26 09:31:22;;;;;;;;;;;;;;;27.19;42.81;92605.13;5042273;28;7629;-61
2023/10/26 09:33:50;;;;;;;;;;;;;;;27.16;42.32;92606.25;5051185;28;7001;-61
2023/10/26 09:36:22;;;;;;;;;;;;;;;27.16;42.93;92600.75;5046864;28;9147;-61
2023/10/26 09:39:27;;;;;;;;;;;;;;;27.16;42.85;92600.75;5023731;28;7273;-61
2023/10/26 09:42:00;;;;;;;;;;;;;;;27.16;42.75;92594.47;5053991;28;9390;-61
2023/10/26 09:44:30;;;;;;;;;;;;;;;27.15;42.69;92604.78;5032525;28;7045;-61
2023/10/26 09:47:04;;;;;;;;;;;;;;;27.12;42.84;92594.16;5031439;28;7483;-61
2023/10/26 09:49:30;;;;;;;;;;;;;;;27.10;42.77;92602.25;5044786;28;7040;-61
2023/10/26 09:52:02;;;;;;;;;;;;;;;27.10;42.59;92600.22;5028332;28;6980;-61
2023/10/26 09:54:33;;;;;;;;;;;;;;;27.08;42.92;92605.56;5052415;28;8839;-61
2023/10/26 09:57:09;;;;;;;;;;;;;;;27.11;42.72;92596.16;5033599;28;8483;-61
2023/10/26 09:59:44;;;;;;;;;;;;;;;27.10;43.20;92605.72;5050604;28;8764;-61
2023/10/26 10:02:30;;;;;;;;;;;;;;;27.06;42.84;92608.16;5036181;28;7281;-61
2023/10/26 10:05:36;;;;;;;;;;;;;;;27.09;42.50;92612.56;5035409;28;7169;-66
2023/10/26 10:08:05;;;;;;;;;;;;;;;27.07;42.51;92600.63;5033503;28;7220;-66
2023/10/26 10:11:09;;;;;;;;;;;;;;;27.05;42.61;92601.19;5042009;28;7681;-66
2023/10/26 10:13:39;;;;;;;;;;;;;;;27.06;42.60;92593.63;5046480;28;6994;-66
2023/10/26 10:16:33;;;;;;;;;;;;;;;27.05;42.55;92601.19;5029516;28;9345;-66
2023/10/26 10:19:35;;;;;;;;;;;;;;;27.05;42.50;92598.44;5035294;28;9107;-66
2023/10/26 10:22:02;;;;;;;;;;;;;;;27.03;42.56;92603.78;5040069;28;7071;-66
2023/10/26 10:24:42;;;;;;;;;;;;;;;27.00;42.67;92604.88;5027951;28;9106;-66
2023/10/26 10:27:27;;;;;;;;;;;;;;;27.02;42.74;92602.31;5042320;28;7170;-65
2023/10/26 10:29:57;;;;;;;;;;;;;;;26.99;42.76;92594.44;5043468;28;7259;-66
2023/10/26 10:32:42;;;;;;;;;;;;;;;27.03;43.08;92600.28;5045994;28;7300;-66
2023/10/26 10:35:32;;;;;;;;;;;;;;;27.00;43.30;92588.34;5048616;28;7033;-66
2023/10/26 10:38:32;;;;;;;;;;;;;;;27.02;42.85;92585.75;4999943;28;9034;-66
2023/10/26 10:41:12;;;;;;;;;;;;;;;26.99;42.68;92597.91;5035233;28;7544;-66
2023/10/26 10:43:45;;;;;;;;;;;;;;;27.01;43.02;92589.06;5053796;28;8094;-66
2023/10/26 10:46:29;;;;;;;;;;;;;;;27.04;43.07;92587.94;5055040;28;7061;-66
2023/10/26 10:49:11;;;;;;;;;;;;;;;27.04;42.72;92588.66;5032061;28;7232;-66
2023/10/26 10:51:41;;;;;;;;;;;;;;;27.04;43.18;92596.94;5043884;28;7301;-66
2023/10/26 10:54:27;;;;;;;;;;;;;;;27.04;42.85;92596.94;5040214;28;7150;-65
2023/10/26 10:56:54;;;;;;;;;;;;;;;27.07;42.54;92601.34;5041730;28;7202;-65
2023/10/26 10:59:30;;;;;;;;;;;;;;;27.05;42.76;92590.16;5035469;28;8175;-66
2023/10/26 11:02:15;;;;;;;;;;;;;;;27.03;42.73;92592.00;5038363;28;7233;-66
2023/10/26 11:04:58;;;;;;;;;;;;;;;27.04;42.85;92587.94;5036458;28;7199;-66
2023/10/26 11:07:30;;;;;;;;;;;;;;;27.05;43.24;92584.63;5054363;28;7014;-66
2023/10/26 11:10:04;;;;;;;;;;;;;;;27.03;42.76;92592.75;5035964;28;9062;-66
2023/10/26 11:12:32;;;;;;;;;;;;;;;27.00;42.75;92577.31;5049159;28;7243;-66
2023/10/26 11:14:58;;;;;;;;;;;;;;;27.00;42.75;92571.78;5022794;28;7284;-55
2023/10/26 11:17:27;;;;;;;;;;;;;;;27.01;43.06;92578.78;5038552;28;7024;-54
2023/10/26 11:19:53;;;;;;;;;;;;;;;27.01;42.67;92567.75;5043607;28;7199;-54
2023/10/26 11:22:23;;;;;;;;;;;;;;;27.03;42.31;92569.94;5044837;28;7026;-55
2023/10/26 11:24:52;;;;;;;;;;;;;;;27.02;42.65;92563.66;5053003;28;8781;-54
2023/10/26 11:27:21;;;;;;;;;;;;;;;27.01;42.59;92567.75;5035149;28;7092;-55
2023/10/26 11:30:03;;;;;;;;;;;;;;;27.01;42.98;92553.94;5052135;28;7159;-55
2023/10/26 11:32:30;;;;;;;;;;;;;;;27.00;42.87;92543.44;5056910;28;7216;-55
2023/10/26 11:35:05;;;;;;;;;;;;;;;26.99;42.83;92542.72;5039321;28;6998;-56
2023/10/26 11:37:45;;;;;;;;;;;;;;;27.00;43.13;92544.19;5047382;28;7217;-55
2023/10/26 11:40:59;;;;;;;;;;;;;;;26.98;42.98;92549.53;5032844;28;7544;-55
2023/10/26 11:43:51;;;;;;;;;;;;;;;26.95;42.92;92547.91;4971221;28;7327;-55
2023/10/26 11:46:36;;;;;;;;;;;;;;;26.93;43.14;92550.50;4983916;28;7339;-55
2023/10/26 11:49:38;;;;;;;;;;;;;;;26.93;43.02;92528.41;4955560;28;7439;-55
2023/10/26 11:52:11;;;;;;;;;;;;;;;26.92;42.51;92527.69;4904640;29;8773;-55
2023/10/26 11:54:51;;;;;;;;;;;;;;;26.93;42.87;92533.94;4906734;29;6998;-55
2023/10/26 11:57:27;;;;;;;;;;;;;;;26.94;43.21;92516.09;4911586;29;7896;-55
2023/10/26 12:00:05;;;;;;;;;;;;;;;26.97;43.12;92517.72;4913640;29;9008;-55
2023/10/26 12:02:40;;;;;;;;;;;;;;;26.96;43.04;92505.22;4923238;29;8660;-55
2023/10/26 12:05:17;;;;;;;;;;;;;;;26.96;43.08;92502.47;4915849;29;7236;-55
2023/10/26 12:07:47;;;;;;;;;;;;;;;26.97;42.74;92501.16;4916471;29;6996;-55
2023/10/26 12:10:16;;;;;;;;;;;;;;;26.95;43.35;92489.25;4914026;29;7673;-55
2023/10/26 12:12:52;;;;;;;;;;;;;;;26.92;42.85;92472.50;4901900;29;7316;-55
2023/10/26 12:15:40;;;;;;;;;;;;;;;26.94;43.03;92485.00;4907279;29;9151;-55
2023/10/26 12:18:07;;;;;;;;;;;;;;;26.97;42.76;92483.91;4924267;29;7054;-55
2023/10/26 12:20:33;;;;;;;;;;;;;;;26.97;43.17;92481.13;4929017;28;9206;-55
2023/10/26 12:23:10;;;;;;;;;;;;;;;26.97;42.66;92481.84;4948294;28;8695;-55
2023/10/26 12:25:47;;;;;;;;;;;;;;;26.95;42.73;92476.16;4947640;28;7644;-55
2023/10/26 12:28:16;;;;;;;;;;;;;;;26.98;43.08;92468.78;5000929;28;7268;-55
2023/10/26 12:30:59;;;;;;;;;;;;;;;26.95;43.05;92465.13;5041839;28;7341;-54
2023/10/26 12:33:29;;;;;;;;;;;;;;;26.96;42.77;92466.59;5057443;28;9047;-54
2023/10/26 12:36:15;;;;;;;;;;;;;;;26.93;43.03;92467.72;5058323;28;7933;-55
2023/10/26 12:38:41;;;;;;;;;;;;;;;26.92;42.96;92469.75;5046838;28;10233;-55
2023/10/26 12:41:25;;;;;;;;;;;;;;;26.94;43.26;92462.94;5056439;28;7265;-55
2023/10/26 12:44:12;;;;;;;;;;;;;;;26.93;43.70;92459.44;5030248;28;7218;-55
2023/10/26 12:46:46;;;;;;;;;;;;;;;26.93;43.47;92456.69;5047385;28;7228;-55
2023/10/26 12:49:15;;;;;;;;;;;;;;;26.95;43.37;92462.38;5039975;28;7479;-55
2023/10/26 12:51:57;;;;;;;;;;;;;;;26.93;43.08;92459.44;5044262;28;7007;-54
2023/10/26 12:54:23;;;;;;;;;;;;;;;26.92;42.84;92472.50;5029440;28;7007;-55
2023/10/26 12:56:49;;;;;;;;;;;;;;;26.94;43.03;92471.97;5055502;28;9088;-55
2023/10/26 12:59:15;;;;;;;;;;;;;;;26.92;42.79;92472.50;5038089;28;7530;-55
2023/10/26 13:01:44;;;;;;;;;;;;;;;26.90;43.24;92469.59;5050193;28;7200;-55
2023/10/26 13:04:10;;;;;;;;;;;;;;;26.92;43.07;92474.56;5039385;28;7940;-55
2023/10/26 13:06:39;;;;;;;;;;;;;;;26.88;43.07;92472.19;5040690;28;9345;-55
2023/10/26 13:09:07;;;;;;;;;;;;;;;26.90;43.13;92477.84;5052394;28;7080;-51
2023/10/26 13:11:35;;;;;;;;;;;;;;;26.91;43.29;92481.34;5033270;28;7293;-55
2023/10/26 13:14:08;;;;;;;;;;;;;;;26.91;42.80;92484.13;5055406;28;9062;-54
2023/10/26 13:16:54;;;;;;;;;;;;;;;26.90;43.24;92491.66;5052338;28;7481;-54
2023/10/26 13:19:22;;;;;;;;;;;;;;;26.88;43.34;92494.25;5038254;28;7186;-55
2023/10/26 13:21:48;;;;;;;;;;;;;;;26.90;43.39;92499.22;5038042;28;7100;-55
2023/10/26 13:24:30;;;;;;;;;;;;;;;26.87;43.41;92495.56;5049362;28;7265;-55
2023/10/26 13:27:03;;;;;;;;;;;;;;;26.85;43.60;92495.41;5046259;28;6956;-55
2023/10/26 13:29:31;;;;;;;;;;;;;;;26.88;43.76;92496.28;5038887;28;8793;-55
2023/10/26 13:32:05;;;;;;;;;;;;;;;26.85;43.25;92491.91;5036046;28;7245;-55
2023/10/26 13:34:31;;;;;;;;;;;;;;;26.87;42.90;92497.59;5048726;28;6966;-63
2023/10/26 13:37:12;;;;;;;;;;;;;;;26.89;43.01;92497.75;5035211;28;8720;-62